Time;durP1;ratioP1;P1;durP2;ratioP2;P2;SDS_P1;SDS_P2;PMS_P1;PMS_P2;Temp;Humidity;BMP_temperature;BMP_pressure;BME280_temperature;BME280_humidity;BME280_pressure;Samples;Min_cycle;Max_cycle;Signal;HPM_P1;HPM_P2
2022/07/20 00:03:41;;;;;;;1.60;0.95;;;;;;;;;;12544900;28;20059;-80
2022/07/20 00:16:04;;;;;;;0.83;0.83;;;;;;;;;;12557879;28;20401;-80
2022/07/20 00:22:06;;;;;;;1.27;1.08;;;;;;;;;;12555616;28;20029;-81
2022/07/20 00:28:07;;;;;;;1.95;1.02;;;;;;;;;;12554888;28;20044;-77
2022/07/20 00:34:09;;;;;;;2.30;1.40;;;;;;;;;;12554507;28;20037;-77
2022/07/20 00:40:12;;;;;;;1.88;1.15;;;;;;;;;;12553239;28;20061;-77
2022/07/20 00:46:14;;;;;;;3.03;1.38;;;;;;;;;;12559077;28;20040;-80
2022/07/20 00:52:16;;;;;;;1.50;1.38;;;;;;;;;;12554519;28;20033;-80
2022/07/20 00:58:18;;;;;;;1.67;1.45;;;;;;;;;;12554116;28;20041;-76
2022/07/20 01:04:19;;;;;;;1.50;1.40;;;;;;;;;;12553371;28;20051;-80
2022/07/20 01:10:21;;;;;;;1.70;1.40;;;;;;;;;;12551900;28;20402;-76
2022/07/20 01:16:23;;;;;;;1.27;1.17;;;;;;;;;;12554248;28;20033;-77
2022/07/20 01:22:24;;;;;;;4.03;1.73;;;;;;;;;;12557551;28;20045;-80
2022/07/20 01:28:28;;;;;;;2.13;1.70;;;;;;;;;;12549803;28;20044;-77
2022/07/20 01:34:30;;;;;;;2.55;1.73;;;;;;;;;;12550637;28;20037;-77
2022/07/20 01:40:32;;;;;;;2.70;2.05;;;;;;;;;;12550037;28;20049;-80
2022/07/20 01:46:34;;;;;;;1.92;1.73;;;;;;;;;;12551720;28;20048;-80
2022/07/20 01:52:36;;;;;;;1.50;1.40;;;;;;;;;;12549514;28;20037;-76
2022/07/20 01:58:38;;;;;;;1.75;1.50;;;;;;;;;;12552604;28;20083;-75
2022/07/20 02:04:39;;;;;;;2.00;1.30;;;;;;;;;;12550449;28;20041;-77
2022/07/20 02:10:41;;;;;;;2.20;2.00;;;;;;;;;;12551195;28;20044;-79
2022/07/20 02:16:43;;;;;;;2.15;1.95;;;;;;;;;;12552397;28;20044;-76
2022/07/20 02:22:45;;;;;;;2.40;1.83;;;;;;;;;;12549560;28;20040;-79
2022/07/20 02:28:47;;;;;;;1.58;1.45;;;;;;;;;;12548190;28;20029;-76
2022/07/20 02:34:48;;;;;;;3.78;1.92;;;;;;;;;;12548523;28;20031;-80
2022/07/20 02:40:50;;;;;;;2.63;1.90;;;;;;;;;;12531054;28;20064;-79
2022/07/20 02:46:52;;;;;;;2.17;1.60;;;;;;;;;;12547692;28;20051;-78
2022/07/20 02:52:54;;;;;;;3.28;1.80;;;;;;;;;;12549216;28;20025;-76
2022/07/20 02:58:56;;;;;;;2.10;1.40;;;;;;;;;;12548688;28;20029;-80
2022/07/20 03:04:57;;;;;;;1.55;1.30;;;;;;;;;;12550078;28;20036;-79
2022/07/20 03:10:59;;;;;;;1.55;1.45;;;;;;;;;;12551019;28;20050;-80
2022/07/20 03:17:01;;;;;;;1.75;1.45;;;;;;;;;;12549275;28;20040;-76
2022/07/20 03:23:03;;;;;;;1.25;1.13;;;;;;;;;;12550440;28;20036;-80
2022/07/20 03:29:05;;;;;;;1.48;1.38;;;;;;;;;;12548534;28;20043;-79
2022/07/20 03:35:07;;;;;;;2.88;1.60;;;;;;;;;;12552413;28;20032;-80
2022/07/20 03:41:08;;;;;;;1.85;1.52;;;;;;;;;;12550075;28;20061;-80
2022/07/20 03:47:10;;;;;;;1.33;1.23;;;;;;;;;;12543819;28;20045;-80
2022/07/20 03:53:12;;;;;;;2.15;1.40;;;;;;;;;;12542047;28;20032;-76
2022/07/20 03:59:14;;;;;;;1.42;1.33;;;;;;;;;;12542534;28;20036;-77
2022/07/20 04:05:16;;;;;;;;;;;;;;;;;;12544389;28;20041;-77
2022/07/20 04:11:17;;;;;;;3.03;1.43;;;;;;;;;;12546400;28;20281;-80
2022/07/20 04:17:19;;;;;;;;;;;;;;;;;;12529680;28;20289;-80
2022/07/20 04:23:20;;;;;;;2.05;1.67;;;;;;;;;;12541901;28;19921;-77
2022/07/20 04:29:22;;;;;;;3.05;1.52;;;;;;;;;;12541312;28;20516;-77
2022/07/20 04:35:24;;;;;;;1.58;1.48;;;;;;;;;;12540053;28;20033;-80
2022/07/20 04:41:26;;;;;;;1.80;1.60;;;;;;;;;;12566710;28;20057;-77
2022/07/20 04:47:28;;;;;;;5.13;1.88;;;;;;;;;;12541774;28;20115;-76
2022/07/20 04:53:29;;;;;;;;;;;;;;;;;;12540770;28;20029;-80
2022/07/20 04:59:31;;;;;;;2.60;2.40;;;;;;;;;;12543436;28;19917;-76
2022/07/20 05:05:32;;;;;;;2.88;2.65;;;;;;;;;;12549625;28;20048;-77
2022/07/20 05:11:34;;;;;;;2.28;1.92;;;;;;;;;;12548268;28;20048;-76
2022/07/20 05:17:36;;;;;;;4.70;3.05;;;;;;;;;;12548245;28;20029;-76
2022/07/20 05:23:38;;;;;;;3.13;2.90;;;;;;;;;;12547822;28;20044;-75
2022/07/20 05:29:40;;;;;;;2.85;2.65;;;;;;;;;;12548135;28;20037;-80
2022/07/20 05:35:41;;;;;;;4.18;3.05;;;;;;;;;;12548644;28;20441;-80
2022/07/20 05:41:43;;;;;;;3.50;3.20;;;;;;;;;;12530581;28;20049;-77
2022/07/20 05:47:45;;;;;;;4.68;3.20;;;;;;;;;;12548037;28;20045;-77
2022/07/20 05:53:46;;;;;;;4.28;3.88;;;;;;;;;;12546664;28;20025;-77
2022/07/20 05:59:49;;;;;;;5.10;3.65;;;;;;;;;;12531910;28;20037;-81
2022/07/20 06:05:51;;;;;;;4.28;3.88;;;;;;;;;;12546345;28;20543;-77
2022/07/20 06:11:53;;;;;;;4.25;3.85;;;;;;;;;;12546514;28;20037;-81
2022/07/20 06:17:55;;;;;;;5.28;4.68;;;;;;;;;;12550482;28;20029;-80
2022/07/20 06:23:56;;;;;;;4.13;3.78;;;;;;;;;;12548936;28;20048;-77
2022/07/20 06:29:58;;;;;;;5.30;4.80;;;;;;;;;;12545390;28;20036;-81
2022/07/20 06:36:00;;;;;;;4.55;3.92;;;;;;;;;;12547388;28;20416;-77
2022/07/20 06:42:02;;;;;;;4.47;3.72;;;;;;;;;;12546012;28;20535;-81
2022/07/20 06:48:04;;;;;;;4.22;3.85;;;;;;;;;;12547585;28;20044;-76
2022/07/20 06:54:06;;;;;;;4.10;3.50;;;;;;;;;;12546218;28;20029;-81
2022/07/20 07:00:08;;;;;;;4.53;3.90;;;;;;;;;;12545080;28;20033;-77
2022/07/20 07:06:10;;;;;;;4.68;4.00;;;;;;;;;;12543964;28;20052;-77
2022/07/20 07:12:11;;;;;;;4.05;3.42;;;;;;;;;;12545517;28;20032;-81
2022/07/20 07:18:13;;;;;;;4.22;3.22;;;;;;;;;;12545005;28;20404;-77
2022/07/20 07:24:15;;;;;;;3.67;3.28;;;;;;;;;;12543721;28;20036;-77
2022/07/20 07:30:17;;;;;;;3.03;2.80;;;;;;;;;;12547033;28;20041;-81
2022/07/20 07:36:19;;;;;;;3.40;3.10;;;;;;;;;;12527587;28;20047;-76
2022/07/20 07:42:22;;;;;;;3.35;3.05;;;;;;;;;;12545505;28;20056;-81
2022/07/20 07:48:24;;;;;;;3.30;2.90;;;;;;;;;;12546990;28;20055;-81
2022/07/20 07:54:27;;;;;;;2.70;2.50;;;;;;;;;;12545807;28;20067;-80
2022/07/20 08:00:29;;;;;;;4.03;3.40;;;;;;;;;;12543211;28;20044;-80
2022/07/20 08:06:31;;;;;;;3.20;2.42;;;;;;;;;;12549894;28;20055;-77
2022/07/20 08:12:33;;;;;;;2.88;2.25;;;;;;;;;;12545556;28;20044;-81
2022/07/20 08:18:34;;;;;;;2.65;2.40;;;;;;;;;;12542464;28;20393;-77
2022/07/20 08:24:36;;;;;;;2.10;1.90;;;;;;;;;;12543669;28;20041;-76
2022/07/20 08:30:39;;;;;;;2.40;1.90;;;;;;;;;;12543318;28;20033;-80
2022/07/20 08:36:41;;;;;;;1.40;1.30;;;;;;;;;;12541805;28;20036;-80
2022/07/20 08:42:42;;;;;;;2.25;1.65;;;;;;;;;;12557399;28;20056;-80
2022/07/20 08:48:44;;;;;;;2.88;1.63;;;;;;;;;;12551756;28;20049;-80
2022/07/20 08:54:47;;;;;;;2.25;1.60;;;;;;;;;;12551214;28;20033;-77
2022/07/20 09:00:49;;;;;;;2.97;1.60;;;;;;;;;;12551917;28;20028;-76
2022/07/20 09:06:51;;;;;;;1.63;1.52;;;;;;;;;;12550812;28;20052;-76
2022/07/20 09:12:55;;;;;;;2.42;1.80;;;;;;;;;;12555008;28;20037;-76
2022/07/20 09:18:58;;;;;;;1.67;1.58;;;;;;;;;;12553143;28;20029;-76
2022/07/20 09:25:12;;;;;;;2.00;1.20;;;;;;;;;;12556692;28;20052;-76
2022/07/20 09:31:14;;;;;;;2.38;1.30;;;;;;;;;;12551962;28;20037;-76
2022/07/20 09:37:17;;;;;;;0.90;0.90;;;;;;;;;;12550201;28;20040;-80
2022/07/20 09:43:48;;;;;;;1.85;1.38;;;;;;;;;;12550038;28;20064;-77
2022/07/20 09:49:50;;;;;;;1.67;1.13;;;;;;;;;;12547641;28;20045;-77
2022/07/20 09:55:52;;;;;;;1.10;1.00;;;;;;;;;;12552927;28;20056;-77
2022/07/20 10:01:56;;;;;;;1.58;0.90;;;;;;;;;;12549419;28;20041;-80
2022/07/20 10:08:01;;;;;;;1.85;1.00;;;;;;;;;;12549052;28;20041;-80
2022/07/20 10:14:04;;;;;;;0.80;0.80;;;;;;;;;;12552202;28;20037;-80
2022/07/20 10:20:26;;;;;;;1.92;1.20;;;;;;;;;;12549453;28;20511;-77
2022/07/20 10:26:28;;;;;;;1.40;0.90;;;;;;;;;;12549627;28;20049;-78
2022/07/20 10:32:30;;;;;;;1.75;0.73;;;;;;;;;;12549938;28;20033;-77
2022/07/20 10:38:31;;;;;;;0.60;0.60;;;;;;;;;;12547055;28;20037;-78
2022/07/20 10:44:33;;;;;;;1.73;0.70;;;;;;;;;;12546476;28;20049;-77
2022/07/20 10:50:36;;;;;;;3.00;0.55;;;;;;;;;;12549892;28;20032;-76
2022/07/20 10:56:38;;;;;;;1.20;0.68;;;;;;;;;;12548036;28;20029;-79
2022/07/20 11:02:40;;;;;;;2.00;0.80;;;;;;;;;;12545625;28;20051;-76
2022/07/20 11:08:43;;;;;;;2.60;1.00;;;;;;;;;;12545605;28;20056;-77
2022/07/20 11:14:52;;;;;;;0.77;0.70;;;;;;;;;;12544879;28;20025;-80
2022/07/20 11:20:55;;;;;;;0.88;0.60;;;;;;;;;;12546307;28;20040;-77
2022/07/20 11:26:57;;;;;;;0.88;0.57;;;;;;;;;;12546568;28;20037;-78
2022/07/20 11:32:59;;;;;;;1.48;0.80;;;;;;;;;;12545107;28;20032;-78
2022/07/20 11:39:02;;;;;;;2.55;1.13;;;;;;;;;;12545552;28;20072;-77
2022/07/20 11:45:05;;;;;;;1.23;0.98;;;;;;;;;;12546215;28;20436;-77
2022/07/20 11:51:08;;;;;;;1.50;1.20;;;;;;;;;;12544466;28;20033;-76
2022/07/20 11:57:12;;;;;;;2.63;1.08;;;;;;;;;;12544737;28;20384;-80
2022/07/20 12:03:14;;;;;;;1.00;0.90;;;;;;;;;;12543949;28;20029;-76
2022/07/20 12:09:17;;;;;;;0.85;0.85;;;;;;;;;;12546651;28;20107;-80
2022/07/20 12:15:18;;;;;;;2.03;0.90;;;;;;;;;;12555656;28;20033;-79
2022/07/20 12:21:21;;;;;;;1.35;1.00;;;;;;;;;;12556038;28;20393;-79
2022/07/20 12:27:24;;;;;;;3.13;1.30;;;;;;;;;;12553616;28;20045;-77
2022/07/20 12:33:26;;;;;;;1.30;1.17;;;;;;;;;;12553525;28;20032;-80
2022/07/20 12:39:40;;;;;;;1.42;0.80;;;;;;;;;;12554383;28;20507;-77
2022/07/20 12:45:41;;;;;;;2.25;1.50;;;;;;;;;;12553704;28;20041;-77
2022/07/20 12:51:43;;;;;;;1.27;1.15;;;;;;;;;;12553530;28;20040;-77
2022/07/20 12:57:46;;;;;;;1.00;0.82;;;;;;;;;;12553288;28;20693;-80
2022/07/20 13:03:48;;;;;;;1.75;0.70;;;;;;;;;;12551347;28;20071;-80
2022/07/20 13:09:50;;;;;;;1.52;1.10;;;;;;;;;;12551592;28;20385;-76
2022/07/20 13:15:51;;;;;;;1.75;1.08;;;;;;;;;;12551067;28;20037;-76
2022/07/20 13:21:53;;;;;;;1.20;1.10;;;;;;;;;;12549934;28;20473;-79
2022/07/20 13:27:55;;;;;;;1.35;1.13;;;;;;;;;;12551501;28;20143;-79
2022/07/20 13:33:58;;;;;;;2.72;1.30;;;;;;;;;;12551694;28;20040;-76
2022/07/20 13:39:59;;;;;;;2.15;1.48;;;;;;;;;;12550459;28;20052;-79
2022/07/20 13:46:01;;;;;;;1.60;1.50;;;;;;;;;;12551344;28;20052;-80
2022/07/20 13:52:03;;;;;;;1.80;1.40;;;;;;;;;;12550858;28;20029;-80
2022/07/20 13:58:05;;;;;;;1.17;1.02;;;;;;;;;;12549150;28;20037;-80
2022/07/20 14:04:07;;;;;;;2.45;1.15;;;;;;;;;;12548952;28;20047;-76
2022/07/20 14:10:09;;;;;;;2.15;1.30;;;;;;;;;;12551312;28;20037;-76
2022/07/20 14:16:11;;;;;;;1.90;1.35;;;;;;;;;;12548411;28;20048;-76
2022/07/20 14:22:13;;;;;;;1.83;1.35;;;;;;;;;;12549054;28;20033;-76
2022/07/20 14:28:14;;;;;;;1.70;1.60;;;;;;;;;;12549239;28;20041;-76
2022/07/20 14:34:16;;;;;;;1.73;1.60;;;;;;;;;;12548341;28;20040;-80
2022/07/20 14:40:18;;;;;;;1.73;1.50;;;;;;;;;;12548159;28;20065;-80
2022/07/20 14:46:20;;;;;;;1.88;1.48;;;;;;;;;;12546275;28;20044;-80
2022/07/20 14:52:21;;;;;;;1.80;1.60;;;;;;;;;;12547148;28;20397;-77
2022/07/20 14:58:23;;;;;;;2.20;1.38;;;;;;;;;;12547929;28;20036;-77
2022/07/20 15:04:25;;;;;;;1.67;1.58;;;;;;;;;;12546309;28;20055;-78
2022/07/20 15:10:27;;;;;;;2.78;1.52;;;;;;;;;;12547361;28;20033;-80
2022/07/20 15:16:29;;;;;;;1.63;1.52;;;;;;;;;;12545080;28;20033;-80
2022/07/20 15:22:31;;;;;;;1.88;1.63;;;;;;;;;;12548159;28;20029;-79
2022/07/20 15:28:33;;;;;;;1.70;1.60;;;;;;;;;;12546641;28;20049;-77
2022/07/20 15:34:34;;;;;;;3.20;2.00;;;;;;;;;;12546841;28;20037;-80
2022/07/20 15:40:36;;;;;;;2.67;1.58;;;;;;;;;;12549464;28;20057;-80
2022/07/20 15:46:38;;;;;;;2.85;1.90;;;;;;;;;;12549218;28;20049;-77
2022/07/20 15:52:41;;;;;;;3.45;1.42;;;;;;;;;;12545756;28;20032;-80
2022/07/20 15:58:43;;;;;;;2.35;1.60;;;;;;;;;;12544552;28;20028;-80
2022/07/20 16:04:45;;;;;;;1.80;1.70;;;;;;;;;;12543500;28;20484;-81
2022/07/20 16:10:47;;;;;;;1.80;1.70;;;;;;;;;;12545455;28;20388;-77
2022/07/20 16:16:49;;;;;;;2.25;1.60;;;;;;;;;;12543669;28;20037;-77
2022/07/20 16:22:51;;;;;;;2.38;1.95;;;;;;;;;;12548330;28;20048;-80
2022/07/20 16:28:53;;;;;;;1.50;1.40;;;;;;;;;;12543212;28;20045;-77
2022/07/20 16:34:56;;;;;;;1.88;1.40;;;;;;;;;;12544742;28;20044;-80
2022/07/20 16:40:58;;;;;;;1.35;1.23;;;;;;;;;;12543000;28;20056;-80
2022/07/20 16:47:00;;;;;;;1.35;1.17;;;;;;;;;;12544107;28;20044;-77
2022/07/20 16:53:02;;;;;;;1.08;0.95;;;;;;;;;;12544698;28;20040;-77
2022/07/20 16:59:03;;;;;;;1.20;1.10;;;;;;;;;;12548853;28;20396;-78
2022/07/20 17:05:05;;;;;;;1.10;1.00;;;;;;;;;;12553124;28;20048;-81
2022/07/20 17:11:07;;;;;;;1.10;1.00;;;;;;;;;;12552202;28;20033;-77
2022/07/20 17:17:09;;;;;;;1.33;0.80;;;;;;;;;;12555083;28;20392;-81
2022/07/20 17:23:11;;;;;;;0.75;0.75;;;;;;;;;;12551209;28;20025;-79
2022/07/20 17:29:13;;;;;;;1.10;1.00;;;;;;;;;;12550372;28;20044;-77
2022/07/20 17:35:15;;;;;;;1.55;0.90;;;;;;;;;;12550109;28;20480;-76
2022/07/20 17:41:17;;;;;;;1.00;0.77;;;;;;;;;;12559099;28;20060;-79
2022/07/20 17:47:18;;;;;;;2.03;1.05;;;;;;;;;;12552348;28;20048;-80
2022/07/20 17:53:20;;;;;;;0.98;0.90;;;;;;;;;;12550668;28;20036;-76
2022/07/20 17:59:25;;;;;;;1.90;0.93;;;;;;;;;;12551330;28;20037;-77
2022/07/20 18:05:27;;;;;;;1.23;1.13;;;;;;;;;;12548677;28;20045;-80
2022/07/20 18:11:29;;;;;;;1.27;1.10;;;;;;;;;;12552991;28;20048;-80
2022/07/20 18:17:30;;;;;;;3.63;1.20;;;;;;;;;;12549952;28;20416;-78
2022/07/20 18:23:32;;;;;;;1.30;0.68;;;;;;;;;;12548282;28;20041;-77
2022/07/20 18:29:34;;;;;;;1.50;1.00;;;;;;;;;;12549864;28;20037;-77
2022/07/20 18:35:36;;;;;;;1.13;0.90;;;;;;;;;;12548581;28;20043;-80
2022/07/20 18:41:38;;;;;;;1.20;1.05;;;;;;;;;;12548642;28;20091;-77
2022/07/20 18:47:40;;;;;;;1.50;0.80;;;;;;;;;;12546348;28;20393;-77
2022/07/20 18:53:42;;;;;;;1.60;0.80;;;;;;;;;;12548340;28;20469;-79
2022/07/20 18:59:44;;;;;;;0.90;0.70;;;;;;;;;;12546467;28;20041;-76
2022/07/20 19:05:48;;;;;;;0.98;0.70;;;;;;;;;;12546467;28;20041;-80
2022/07/20 19:11:49;;;;;;;1.90;0.70;;;;;;;;;;12547239;28;20033;-80
2022/07/20 19:17:53;;;;;;;1.83;0.70;;;;;;;;;;12545566;28;20032;-80
2022/07/20 19:23:55;;;;;;;1.10;0.68;;;;;;;;;;12545981;28;20041;-77
2022/07/20 19:29:57;;;;;;;1.25;0.60;;;;;;;;;;12545111;28;20033;-76
2022/07/20 19:35:59;;;;;;;1.63;0.60;;;;;;;;;;12545109;28;20362;-80
2022/07/20 19:42:00;;;;;;;0.60;0.57;;;;;;;;;;12546011;28;20053;-80
2022/07/20 19:48:03;;;;;;;0.60;0.50;;;;;;;;;;12546955;28;20345;-76
2022/07/20 19:54:06;;;;;;;0.82;0.60;;;;;;;;;;12545465;28;20037;-77
2022/07/20 20:00:08;;;;;;;0.77;0.40;;;;;;;;;;12546395;28;20040;-80
2022/07/20 20:06:12;;;;;;;0.50;0.50;;;;;;;;;;12545363;28;20049;-82
2022/07/20 20:12:14;;;;;;;0.90;0.60;;;;;;;;;;12544052;28;20045;-81
2022/07/20 20:18:16;;;;;;;1.17;0.60;;;;;;;;;;12544673;28;20040;-81
2022/07/20 20:24:18;;;;;;;2.05;0.70;;;;;;;;;;12544425;28;20472;-77
2022/07/20 20:30:20;;;;;;;1.80;1.10;;;;;;;;;;12545280;28;20025;-81
2022/07/20 20:36:21;;;;;;;0.63;0.63;;;;;;;;;;12553127;28;20029;-77
2022/07/20 20:42:23;;;;;;;2.17;0.77;;;;;;;;;;12553281;28;20071;-80
2022/07/20 20:48:25;;;;;;;1.98;0.63;;;;;;;;;;12552441;28;20510;-77
2022/07/20 20:54:26;;;;;;;2.10;0.55;;;;;;;;;;12554196;28;20032;-77
2022/07/20 21:00:29;;;;;;;1.48;0.93;;;;;;;;;;12553232;28;20484;-77
2022/07/20 21:06:31;;;;;;;2.90;0.98;;;;;;;;;;12552805;28;20045;-81
2022/07/20 21:12:33;;;;;;;2.50;1.00;;;;;;;;;;12553542;28;20048;-77
2022/07/20 21:18:34;;;;;;;3.20;0.90;;;;;;;;;;12552681;28;20028;-81
2022/07/20 21:24:36;;;;;;;1.58;1.10;;;;;;;;;;12553373;28;20393;-77
2022/07/20 21:30:40;;;;;;;1.98;1.48;;;;;;;;;;12550615;28;20033;-77
2022/07/20 21:36:42;;;;;;;2.53;1.52;;;;;;;;;;12550478;28;20504;-77
2022/07/20 21:42:43;;;;;;;2.58;1.52;;;;;;;;;;12550829;28;20048;-81
2022/07/20 21:48:45;;;;;;;2.25;1.45;;;;;;;;;;12552200;28;20044;-80
2022/07/20 21:54:47;;;;;;;1.55;1.45;;;;;;;;;;12552311;28;20017;-80
2022/07/20 22:00:48;;;;;;;3.42;1.70;;;;;;;;;;12550682;28;20393;-80
2022/07/20 22:06:50;;;;;;;1.50;1.40;;;;;;;;;;12550699;28;20040;-77
2022/07/20 22:12:52;;;;;;;1.90;1.30;;;;;;;;;;12552605;28;20040;-81
2022/07/20 22:18:54;;;;;;;2.17;1.63;;;;;;;;;;12551506;28;20033;-80
2022/07/20 22:24:55;;;;;;;1.50;1.40;;;;;;;;;;12548386;28;20055;-77
2022/07/20 22:30:57;;;;;;;1.75;1.58;;;;;;;;;;12549248;28;20032;-77
2022/07/20 22:36:59;;;;;;;1.38;1.27;;;;;;;;;;12548549;28;20381;-77
2022/07/20 22:43:00;;;;;;;1.27;1.17;;;;;;;;;;12531445;28;20052;-77
2022/07/20 22:49:02;;;;;;;1.92;1.73;;;;;;;;;;12530881;28;20048;-80
2022/07/20 22:55:06;;;;;;;1.65;1.48;;;;;;;;;;12547090;28;20473;-77
2022/07/20 23:01:07;;;;;;;1.67;1.30;;;;;;;;;;12547884;28;20041;-81
2022/07/20 23:07:09;;;;;;;1.83;1.50;;;;;;;;;;12548829;28;20048;-77
2022/07/20 23:13:11;;;;;;;2.38;1.50;;;;;;;;;;12546760;28;20040;-80
2022/07/20 23:19:13;;;;;;;2.10;1.40;;;;;;;;;;12545879;28;20056;-77
2022/07/20 23:25:14;;;;;;;1.42;1.33;;;;;;;;;;12545989;28;20049;-80
2022/07/20 23:31:16;;;;;;;2.33;1.27;;;;;;;;;;12545337;28;20043;-77
2022/07/20 23:37:18;;;;;;;2.78;1.70;;;;;;;;;;12544855;28;20033;-77
2022/07/20 23:43:20;;;;;;;1.92;1.40;;;;;;;;;;12542221;28;20045;-77
2022/07/20 23:49:22;;;;;;;3.10;1.40;;;;;;;;;;12541971;28;20052;-77
2022/07/20 23:55:24;;;;;;;1.98;1.60;;;;;;;;;;12542406;28;20044;-80
